EHHV weather

Hilversum Airfield
Hilversum, Noord-Holland, Netherlands

Public forecast

Using degrees Celsius for public forecast. Weather courtesy of forecast.io.

METAR (pilot weather report)

Closest report is Amsterdam Airport Schiphol, 15.7 nm (29.1 km) WNW. Retrieved 2019/03/26 14:25 UTC (30 minutes ago):

EHAM 261425Z 27012KT 9999 FEW021 10/04 Q1031 NOSIG

TAF (pilot weather forecast)

Closest forecast is Amsterdam Airport Schiphol, 15.7 nm (29.1 km) WNW. Retrieved 2019/03/26 12:27 UTC (2 hours ago):

TAF TAF EHAM 261119Z 2612/2718 29013KT 9999 SCT020 BKN045 BECMG 2617/2620 30005KT PROB40 TEMPO 2618/2702 BKN017 PROB30 2700/2707 VRB03KT 2000 BR MIFG NSC BECMG 2707/2710 29010KT